Time;durP1;ratioP1;P1;durP2;ratioP2;P2;SDS_P1;SDS_P2;PMS_P1;PMS_P2;Temp;Humidity;BMP_temperature;BMP_pressure;BME280_temperature;BME280_humidity;BME280_pressure;Samples;Min_cycle;Max_cycle;Signal;HPM_P1;HPM_P2
2024/02/13 00:00:59;;;;;;;0.10;0.10;;;;;;;;;;5035930;28;20075;-85
2024/02/13 00:03:26;;;;;;;0.10;0.10;;;;;;;;;;5036152;28;20033;-84
2024/02/13 00:05:52;;;;;;;0.10;0.10;;;;;;;;;;5036392;28;20538;-85
2024/02/13 00:08:18;;;;;;;0.10;0.10;;;;;;;;;;5036013;28;20047;-85
2024/02/13 00:10:44;;;;;;;0.10;0.10;;;;;;;;;;5036235;28;20118;-85
2024/02/13 00:13:10;;;;;;;0.10;0.10;;;;;;;;;;5036074;28;20086;-84
2024/02/13 00:15:38;;;;;;;0.10;0.10;;;;;;;;;;5035754;28;20045;-84
2024/02/13 00:18:05;;;;;;;0.10;0.10;;;;;;;;;;5034833;28;20048;-84
2024/02/13 00:20:32;;;;;;;0.10;0.10;;;;;;;;;;5035675;28;20037;-84
2024/02/13 00:23:00;;;;;;;0.10;0.10;;;;;;;;;;5035736;28;20041;-86
2024/02/13 00:25:28;;;;;;;0.10;0.10;;;;;;;;;;5036038;28;20090;-85
2024/02/13 00:27:54;;;;;;;0.10;0.10;;;;;;;;;;5035705;28;20080;-86
2024/02/13 00:30:20;;;;;;;0.10;0.10;;;;;;;;;;5035680;28;20041;-86
2024/02/13 00:32:46;;;;;;;0.10;0.10;;;;;;;;;;5035338;28;20041;-84
2024/02/13 00:35:13;;;;;;;0.10;0.10;;;;;;;;;;5035594;28;20087;-85
2024/02/13 00:37:39;;;;;;;0.10;0.10;;;;;;;;;;5035632;28;20094;-85
2024/02/13 00:40:11;;;;;;;0.10;0.10;;;;;;;;;;5035545;28;20048;-85
2024/02/13 00:42:38;;;;;;;0.10;0.10;;;;;;;;;;5018885;28;20044;-85
2024/02/13 00:45:07;;;;;;;0.20;0.20;;;;;;;;;;5035419;28;20037;-84
2024/02/13 00:47:36;;;;;;;0.10;0.10;;;;;;;;;;5035406;28;20131;-85
2024/02/13 00:50:03;;;;;;;0.20;0.20;;;;;;;;;;5035100;28;20041;-84
2024/02/13 00:52:29;;;;;;;0.10;0.10;;;;;;;;;;5035242;28;20045;-85
2024/02/13 00:54:56;;;;;;;0.10;0.10;;;;;;;;;;5031443;28;20057;-85
2024/02/13 00:57:22;;;;;;;0.10;0.10;;;;;;;;;;5015407;28;20519;-84
2024/02/13 00:59:48;;;;;;;0.10;0.10;;;;;;;;;;5015206;28;20520;-85
2024/02/13 01:02:17;;;;;;;0.10;0.10;;;;;;;;;;5015451;28;20041;-84
2024/02/13 01:04:44;;;;;;;0.20;0.20;;;;;;;;;;5015855;28;20083;-85
2024/02/13 01:07:10;;;;;;;0.10;0.10;;;;;;;;;;5015339;28;20037;-85
2024/02/13 01:09:36;;;;;;;0.10;0.10;;;;;;;;;;5015199;28;20048;-85
2024/02/13 01:12:05;;;;;;;0.40;0.20;;;;;;;;;;5015115;28;20123;-86
2024/02/13 01:14:32;;;;;;;0.10;0.10;;;;;;;;;;5015686;28;20041;-85
2024/02/13 01:16:58;;;;;;;0.10;0.10;;;;;;;;;;5015387;28;20420;-85
2024/02/13 01:19:24;;;;;;;0.10;0.10;;;;;;;;;;5015370;28;20041;-85
2024/02/13 01:21:50;;;;;;;0.10;0.10;;;;;;;;;;5015149;28;20076;-85
2024/02/13 01:24:16;;;;;;;0.10;0.10;;;;;;;;;;5015364;28;20108;-86
2024/02/13 01:26:44;;;;;;;0.10;0.10;;;;;;;;;;5014837;28;20052;-85
2024/02/13 01:29:11;;;;;;;0.20;0.20;;;;;;;;;;5031152;28;20287;-84
2024/02/13 01:31:38;;;;;;;0.10;0.10;;;;;;;;;;5015009;28;20519;-85
2024/02/13 01:34:04;;;;;;;0.10;0.10;;;;;;;;;;5014822;28;20082;-84
2024/02/13 01:36:30;;;;;;;0.10;0.10;;;;;;;;;;5014809;28;20042;-85
2024/02/13 01:38:59;;;;;;;0.20;0.20;;;;;;;;;;5014710;28;20087;-84
2024/02/13 01:41:26;;;;;;;0.10;0.10;;;;;;;;;;5015385;28;20034;-85
2024/02/13 01:43:52;;;;;;;0.20;0.20;;;;;;;;;;5015170;28;20497;-85
2024/02/13 01:46:19;;;;;;;0.10;0.10;;;;;;;;;;5015278;28;20037;-85
2024/02/13 01:48:45;;;;;;;0.10;0.10;;;;;;;;;;5014989;28;20507;-84
2024/02/13 01:51:12;;;;;;;0.13;0.13;;;;;;;;;;5014628;28;20045;-85
2024/02/13 01:53:38;;;;;;;0.10;0.10;;;;;;;;;;5015056;28;20450;-86
2024/02/13 01:56:05;;;;;;;0.10;0.10;;;;;;;;;;5030143;28;20053;-84
2024/02/13 01:58:31;;;;;;;0.10;0.10;;;;;;;;;;5030803;28;20453;-85
2024/02/13 02:01:01;;;;;;;0.38;0.20;;;;;;;;;;5031084;28;20374;-85
2024/02/13 02:03:33;;;;;;;0.10;0.10;;;;;;;;;;5031120;28;20056;-85
2024/02/13 02:06:00;;;;;;;0.20;0.20;;;;;;;;;;5030992;28;20049;-85
2024/02/13 02:08:26;;;;;;;0.10;0.10;;;;;;;;;;5030958;28;20507;-85
2024/02/13 02:10:52;;;;;;;0.10;0.10;;;;;;;;;;5031334;28;20068;-86
2024/02/13 02:13:18;;;;;;;0.10;0.10;;;;;;;;;;5047385;28;20057;-85
2024/02/13 02:15:44;;;;;;;0.10;0.10;;;;;;;;;;5031136;28;20085;-84
2024/02/13 02:18:13;;;;;;;0.30;0.30;;;;;;;;;;5031168;28;20144;-85
2024/02/13 02:20:39;;;;;;;0.10;0.10;;;;;;;;;;5030797;28;20052;-85
2024/02/13 02:23:07;;;;;;;0.10;0.10;;;;;;;;;;5030740;28;20068;-84
2024/02/13 02:25:33;;;;;;;0.17;0.17;;;;;;;;;;5030857;28;20045;-85
2024/02/13 02:27:59;;;;;;;0.20;0.20;;;;;;;;;;5031167;28;20381;-86
2024/02/13 02:30:25;;;;;;;0.10;0.10;;;;;;;;;;5030703;28;20083;-85
2024/02/13 02:32:51;;;;;;;0.10;0.10;;;;;;;;;;5031071;28;20041;-85
2024/02/13 02:35:18;;;;;;;0.10;0.10;;;;;;;;;;5030642;28;20046;-85
2024/02/13 02:37:48;;;;;;;0.10;0.10;;;;;;;;;;5030811;28;20365;-86
2024/02/13 02:40:16;;;;;;;0.10;0.10;;;;;;;;;;5030964;28;20044;-84
2024/02/13 02:42:45;;;;;;;0.10;0.10;;;;;;;;;;5034916;28;20395;-84
2024/02/13 02:45:11;;;;;;;0.15;0.15;;;;;;;;;;5034343;28;20124;-85
2024/02/13 02:47:37;;;;;;;0.38;0.38;;;;;;;;;;5034378;28;20503;-85
2024/02/13 02:50:03;;;;;;;0.10;0.10;;;;;;;;;;5034338;28;20041;-84
2024/02/13 02:52:29;;;;;;;0.20;0.20;;;;;;;;;;5034747;28;20041;-84
2024/02/13 02:54:55;;;;;;;0.10;0.10;;;;;;;;;;5050388;28;20045;-84
2024/02/13 02:57:22;;;;;;;0.10;0.10;;;;;;;;;;5034385;28;20041;-83
2024/02/13 02:59:49;;;;;;;0.10;0.10;;;;;;;;;;5033962;28;20083;-84
2024/02/13 03:02:15;;;;;;;0.10;0.10;;;;;;;;;;5034194;28;20041;-84
2024/02/13 03:04:41;;;;;;;0.20;0.20;;;;;;;;;;5033831;28;20040;-84
2024/02/13 03:07:08;;;;;;;0.10;0.10;;;;;;;;;;5033945;28;20099;-84
2024/02/13 03:09:34;;;;;;;0.10;0.10;;;;;;;;;;5034121;28;20044;-83
2024/02/13 03:12:00;;;;;;;0.10;0.10;;;;;;;;;;5033830;28;20041;-83
2024/02/13 03:14:26;;;;;;;0.10;0.10;;;;;;;;;;5034171;28;20041;-85
2024/02/13 03:16:53;;;;;;;0.10;0.10;;;;;;;;;;5033907;28;20041;-85
2024/02/13 03:19:19;;;;;;;0.10;0.10;;;;;;;;;;5033868;28;20114;-85
2024/02/13 03:21:45;;;;;;;0.10;0.10;;;;;;;;;;5033547;28;20038;-85
2024/02/13 03:24:11;;;;;;;0.10;0.10;;;;;;;;;;5033487;28;20519;-84
2024/02/13 03:26:37;;;;;;;0.10;0.10;;;;;;;;;;5033704;28;20063;-85
2024/02/13 03:29:03;;;;;;;0.35;0.10;;;;;;;;;;5016905;28;20048;-85
2024/02/13 03:31:29;;;;;;;0.10;0.10;;;;;;;;;;5033186;28;20072;-85
2024/02/13 03:33:56;;;;;;;0.30;0.28;;;;;;;;;;5033388;28;20105;-85
2024/02/13 03:36:22;;;;;;;0.20;0.20;;;;;;;;;;5033359;28;20049;-85
2024/02/13 03:38:49;;;;;;;0.20;0.20;;;;;;;;;;5033140;28;20477;-85
2024/02/13 03:41:15;;;;;;;0.20;0.20;;;;;;;;;;5033008;28;20041;-85
2024/02/13 03:43:43;;;;;;;0.20;0.20;;;;;;;;;;5033090;28;20081;-84
2024/02/13 03:46:12;;;;;;;0.10;0.10;;;;;;;;;;5033236;28;20492;-84
2024/02/13 03:48:38;;;;;;;0.10;0.10;;;;;;;;;;5032886;28;20041;-84
2024/02/13 03:51:07;;;;;;;0.10;0.10;;;;;;;;;;5016140;28;20041;-84
2024/02/13 03:53:35;;;;;;;0.10;0.10;;;;;;;;;;5033022;28;20041;-85
2024/02/13 03:56:02;;;;;;;0.25;0.25;;;;;;;;;;5032645;28;20099;-86
2024/02/13 03:58:28;;;;;;;0.10;0.10;;;;;;;;;;5032871;28;20124;-85
2024/02/13 04:00:55;;;;;;;0.10;0.10;;;;;;;;;;5032718;28;20041;-85
2024/02/13 04:03:26;;;;;;;0.10;0.10;;;;;;;;;;5032658;28;20124;-85
2024/02/13 04:05:52;;;;;;;0.10;0.10;;;;;;;;;;5032756;28;20048;-85
2024/02/13 04:08:19;;;;;;;0.10;0.10;;;;;;;;;;5032948;28;20072;-85
2024/02/13 04:10:45;;;;;;;0.30;0.30;;;;;;;;;;5032799;28;20363;-85
2024/02/13 04:13:11;;;;;;;0.17;0.17;;;;;;;;;;5032500;28;20485;-85
2024/02/13 04:15:37;;;;;;;0.20;0.20;;;;;;;;;;5032194;28;20119;-85
2024/02/13 04:18:04;;;;;;;0.10;0.10;;;;;;;;;;5032493;28;20037;-85
2024/02/13 04:20:30;;;;;;;0.10;0.10;;;;;;;;;;5032341;28;20037;-86
2024/02/13 04:22:56;;;;;;;0.10;0.10;;;;;;;;;;5032469;28;20084;-85
2024/02/13 04:25:22;;;;;;;0.10;0.10;;;;;;;;;;5032580;28;20037;-85
2024/02/13 04:27:48;;;;;;;0.10;0.10;;;;;;;;;;5032472;28;20085;-85
2024/02/13 04:30:14;;;;;;;0.10;0.10;;;;;;;;;;5015640;28;20053;-85
2024/02/13 04:32:41;;;;;;;0.10;0.10;;;;;;;;;;5032361;28;20393;-86
2024/02/13 04:35:07;;;;;;;0.10;0.10;;;;;;;;;;5031991;28;20092;-85
2024/02/13 04:37:33;;;;;;;0.10;0.10;;;;;;;;;;5031962;28;20137;-85
2024/02/13 04:40:00;;;;;;;0.50;0.50;;;;;;;;;;5031969;28;20084;-85
2024/02/13 04:42:35;;;;;;;0.10;0.10;;;;;;;;;;5032087;28;20047;-85
2024/02/13 04:45:02;;;;;;;0.10;0.10;;;;;;;;;;5031943;28;20049;-85
2024/02/13 04:47:28;;;;;;;0.10;0.10;;;;;;;;;;5032255;28;20045;-85
2024/02/13 04:49:55;;;;;;;0.20;0.20;;;;;;;;;;5031791;28;20045;-84
2024/02/13 04:52:22;;;;;;;0.20;0.20;;;;;;;;;;5032080;28;20219;-85
2024/02/13 04:54:48;;;;;;;0.10;0.10;;;;;;;;;;5031643;28;20107;-86
2024/02/13 04:57:14;;;;;;;0.20;0.20;;;;;;;;;;5031663;28;20049;-85
2024/02/13 04:59:47;;;;;;;0.20;0.20;;;;;;;;;;5015205;28;20056;-85
2024/02/13 05:02:14;;;;;;;0.20;0.20;;;;;;;;;;5032181;28;20389;-85
2024/02/13 05:07:29;;;;;;;0.10;0.10;;;;;;;;;;5031768;28;20049;-84
2024/02/13 05:09:59;;;;;;;0.10;0.10;;;;;;;;;;5031417;28;20041;-85
2024/02/13 05:12:26;;;;;;;0.10;0.10;;;;;;;;;;5031701;28;20073;-86
2024/02/13 05:14:57;;;;;;;0.10;0.10;;;;;;;;;;5031292;28;20041;-85
2024/02/13 05:17:30;;;;;;;0.10;0.10;;;;;;;;;;5031634;28;20416;-85
2024/02/13 05:19:56;;;;;;;1.08;0.45;;;;;;;;;;5031265;28;20042;-85
2024/02/13 05:22:22;;;;;;;0.10;0.10;;;;;;;;;;5031253;28;20037;-85
2024/02/13 05:24:48;;;;;;;0.25;0.25;;;;;;;;;;5031311;28;20435;-85
2024/02/13 05:27:14;;;;;;;0.10;0.10;;;;;;;;;;5031455;28;20428;-85
2024/02/13 05:29:43;;;;;;;0.10;0.10;;;;;;;;;;5031415;28;20055;-86
2024/02/13 05:32:10;;;;;;;0.17;0.17;;;;;;;;;;5031155;28;20103;-85
2024/02/13 05:34:36;;;;;;;0.10;0.10;;;;;;;;;;5030992;28;20095;-85
2024/02/13 05:37:05;;;;;;;0.20;0.20;;;;;;;;;;5014688;28;20043;-85
2024/02/13 05:39:31;;;;;;;0.20;0.20;;;;;;;;;;5031049;28;20041;-85
2024/02/13 05:41:57;;;;;;;0.10;0.10;;;;;;;;;;5031155;28;20128;-85
2024/02/13 05:44:24;;;;;;;0.13;0.13;;;;;;;;;;5031229;28;20401;-85
2024/02/13 05:46:55;;;;;;;0.20;0.20;;;;;;;;;;5030880;28;20038;-85
2024/02/13 05:49:22;;;;;;;0.10;0.10;;;;;;;;;;5030835;28;20124;-86
2024/02/13 05:51:48;;;;;;;0.30;0.30;;;;;;;;;;5030833;28;20045;-85
2024/02/13 05:54:15;;;;;;;0.10;0.10;;;;;;;;;;5030752;28;20053;-86
2024/02/13 05:56:41;;;;;;;0.10;0.10;;;;;;;;;;5030762;28;20045;-84
2024/02/13 05:59:09;;;;;;;0.55;0.55;;;;;;;;;;5030779;28;20485;-85
2024/02/13 06:01:35;;;;;;;0.10;0.10;;;;;;;;;;5030692;28;20099;-85
2024/02/13 06:04:03;;;;;;;0.20;0.20;;;;;;;;;;5030777;28;20048;-85
2024/02/13 06:06:29;;;;;;;0.10;0.10;;;;;;;;;;5030868;28;20053;-85
2024/02/13 06:08:56;;;;;;;1.30;1.20;;;;;;;;;;5031059;28;20045;-85
2024/02/13 06:11:23;;;;;;;0.20;0.20;;;;;;;;;;5030815;28;20049;-85
2024/02/13 06:13:49;;;;;;;0.10;0.10;;;;;;;;;;5030636;28;20099;-85
2024/02/13 06:16:18;;;;;;;0.10;0.10;;;;;;;;;;5034494;28;20045;-85
2024/02/13 06:18:47;;;;;;;0.10;0.10;;;;;;;;;;5034846;28;20042;-84
2024/02/13 06:21:14;;;;;;;0.20;0.20;;;;;;;;;;5034606;28;20088;-85
2024/02/13 06:23:41;;;;;;;0.10;0.10;;;;;;;;;;5034632;28;20103;-86
2024/02/13 06:26:08;;;;;;;0.20;0.20;;;;;;;;;;5034705;28;20045;-85
2024/02/13 06:28:35;;;;;;;0.10;0.10;;;;;;;;;;5035119;28;20091;-85
2024/02/13 06:31:03;;;;;;;0.10;0.10;;;;;;;;;;5034322;28;20078;-86
2024/02/13 06:33:29;;;;;;;0.10;0.10;;;;;;;;;;5034714;28;20124;-85
2024/02/13 06:35:55;;;;;;;0.20;0.20;;;;;;;;;;5034356;28;20064;-85
2024/02/13 06:38:24;;;;;;;0.20;0.20;;;;;;;;;;5034360;28;20041;-85
2024/02/13 06:40:53;;;;;;;0.10;0.10;;;;;;;;;;5034591;28;20072;-85
2024/02/13 06:43:19;;;;;;;0.10;0.10;;;;;;;;;;5034198;28;20064;-85
2024/02/13 06:45:45;;;;;;;0.28;0.28;;;;;;;;;;5017753;28;20048;-85
2024/02/13 06:48:11;;;;;;;0.20;0.20;;;;;;;;;;5034195;28;20124;-85
2024/02/13 06:50:38;;;;;;;0.20;0.20;;;;;;;;;;5034172;28;20049;-86
2024/02/13 06:53:04;;;;;;;0.35;0.35;;;;;;;;;;5034377;28;20044;-85
2024/02/13 06:55:31;;;;;;;0.10;0.10;;;;;;;;;;5033769;28;20099;-84
2024/02/13 06:57:57;;;;;;;0.10;0.10;;;;;;;;;;5017434;28;20041;-85
2024/02/13 07:00:25;;;;;;;0.10;0.10;;;;;;;;;;5034092;28;20045;-85
2024/02/13 07:02:54;;;;;;;0.20;0.20;;;;;;;;;;5034133;28;20366;-84
2024/02/13 07:05:20;;;;;;;1.35;0.32;;;;;;;;;;5033845;28;20127;-85
2024/02/13 07:07:47;;;;;;;0.47;0.47;;;;;;;;;;5034065;28;20115;-84
2024/02/13 07:10:14;;;;;;;0.38;0.38;;;;;;;;;;5033749;28;20564;-84
2024/02/13 07:12:40;;;;;;;0.10;0.10;;;;;;;;;;5033655;28;20041;-85
2024/02/13 07:15:06;;;;;;;0.10;0.10;;;;;;;;;;5033741;28;20037;-85
2024/02/13 07:17:32;;;;;;;0.30;0.30;;;;;;;;;;5033802;28;20033;-85
2024/02/13 07:20:00;;;;;;;0.10;0.10;;;;;;;;;;5033504;28;20049;-85
2024/02/13 07:22:26;;;;;;;0.17;0.17;;;;;;;;;;5033547;28;20073;-84
2024/02/13 07:24:52;;;;;;;0.20;0.20;;;;;;;;;;5033778;28;20060;-85
2024/02/13 07:27:18;;;;;;;0.10;0.10;;;;;;;;;;5016193;28;20041;-84
2024/02/13 07:29:44;;;;;;;0.13;0.13;;;;;;;;;;5033355;28;20037;-84
2024/02/13 07:32:11;;;;;;;0.20;0.20;;;;;;;;;;5033548;28;20400;-83
2024/02/13 07:34:38;;;;;;;0.55;0.55;;;;;;;;;;5033406;28;20037;-85
2024/02/13 07:37:08;;;;;;;0.10;0.10;;;;;;;;;;5033333;28;20072;-85
2024/02/13 07:39:34;;;;;;;0.20;0.20;;;;;;;;;;5033171;28;20033;-85
2024/02/13 07:42:01;;;;;;;0.28;0.22;;;;;;;;;;5016587;28;20069;-84
2024/02/13 07:44:29;;;;;;;0.10;0.10;;;;;;;;;;5033200;28;20056;-84
2024/02/13 07:46:56;;;;;;;0.28;0.28;;;;;;;;;;5033026;28;20057;-85
2024/02/13 07:49:22;;;;;;;0.40;0.40;;;;;;;;;;5016614;28;20048;-87
2024/02/13 07:51:51;;;;;;;0.10;0.10;;;;;;;;;;5032916;28;20037;-86
2024/02/13 07:54:17;;;;;;;0.10;0.10;;;;;;;;;;5032711;28;20061;-89
2024/02/13 07:56:43;;;;;;;0.20;0.20;;;;;;;;;;5032830;28;20045;-86
2024/02/13 07:59:09;;;;;;;1.33;0.60;;;;;;;;;;5033325;28;20045;-86
2024/02/13 08:01:35;;;;;;;0.20;0.20;;;;;;;;;;5032983;28;20044;-88
2024/02/13 08:04:01;;;;;;;0.20;0.20;;;;;;;;;;5033138;28;20044;-86
2024/02/13 08:06:28;;;;;;;0.10;0.10;;;;;;;;;;5033104;28;20037;-84
2024/02/13 08:08:54;;;;;;;0.10;0.10;;;;;;;;;;5015544;28;20369;-85
2024/02/13 08:11:21;;;;;;;0.13;0.13;;;;;;;;;;5013122;28;20081;-84
2024/02/13 08:13:48;;;;;;;0.25;0.25;;;;;;;;;;5010240;28;20045;-84
2024/02/13 08:16:14;;;;;;;0.30;0.30;;;;;;;;;;5015834;28;20129;-85
2024/02/13 08:18:40;;;;;;;0.55;0.55;;;;;;;;;;5032342;28;20528;-84
2024/02/13 08:21:06;;;;;;;0.10;0.10;;;;;;;;;;5017659;28;20073;-84
2024/02/13 08:23:35;;;;;;;0.30;0.20;;;;;;;;;;5024067;28;20524;-82
2024/02/13 08:26:01;;;;;;;0.10;0.10;;;;;;;;;;5032175;28;20044;-83
2024/02/13 08:28:28;;;;;;;0.15;0.15;;;;;;;;;;5032016;28;20049;-83
2024/02/13 08:30:54;;;;;;;0.20;0.20;;;;;;;;;;5015777;28;20048;-82
2024/02/13 08:33:21;;;;;;;0.10;0.10;;;;;;;;;;5032162;28;20048;-83
2024/02/13 08:35:49;;;;;;;0.28;0.28;;;;;;;;;;5032192;28;20079;-81
2024/02/13 08:38:17;;;;;;;0.43;0.43;;;;;;;;;;5030763;28;20044;-82
2024/02/13 08:40:43;;;;;;;0.20;0.20;;;;;;;;;;5048545;28;20048;-81
2024/02/13 08:43:10;;;;;;;0.80;0.25;;;;;;;;;;5031810;28;20558;-81
2024/02/13 08:45:37;;;;;;;0.10;0.10;;;;;;;;;;5031801;28;20045;-81
2024/02/13 08:48:04;;;;;;;0.20;0.20;;;;;;;;;;5026668;28;20038;-81
2024/02/13 08:50:31;;;;;;;0.40;0.40;;;;;;;;;;4994318;28;20053;-81
2024/02/13 08:52:57;;;;;;;0.20;0.20;;;;;;;;;;5011043;28;20042;-82
2024/02/13 08:55:23;;;;;;;0.10;0.10;;;;;;;;;;4992188;28;20186;-81
2024/02/13 08:57:51;;;;;;;0.20;0.20;;;;;;;;;;4992158;28;20092;-81
2024/02/13 09:00:18;;;;;;;0.10;0.10;;;;;;;;;;4975816;28;20062;-82
2024/02/13 09:02:48;;;;;;;0.20;0.20;;;;;;;;;;4992457;28;20039;-81
2024/02/13 09:05:14;;;;;;;0.57;0.43;;;;;;;;;;4975791;28;20482;-84
2024/02/13 09:07:41;;;;;;;0.13;0.13;;;;;;;;;;4978497;28;20402;-85
2024/02/13 09:10:12;;;;;;;1.02;0.30;;;;;;;;;;4991445;28;20042;-83
2024/02/13 09:12:45;;;;;;;0.20;0.20;;;;;;;;;;4976598;28;20042;-84
2024/02/13 09:15:11;;;;;;;0.20;0.20;;;;;;;;;;4960418;28;20043;-83
2024/02/13 09:17:47;;;;;;;0.10;0.10;;;;;;;;;;4959589;28;20141;-84
2024/02/13 09:20:14;;;;;;;0.15;0.15;;;;;;;;;;4960076;28;20477;-83
2024/02/13 09:22:44;;;;;;;0.30;0.30;;;;;;;;;;4992072;28;20125;-85
2024/02/13 09:25:38;;;;;;;0.10;0.10;;;;;;;;;;4959959;28;20129;-88
2024/02/13 09:28:05;;;;;;;0.25;0.25;;;;;;;;;;4978543;28;20033;-83
2024/02/13 09:30:33;;;;;;;0.10;0.10;;;;;;;;;;5011503;28;20355;-83
2024/02/13 09:32:59;;;;;;;0.20;0.20;;;;;;;;;;4995105;28;20049;-84
2024/02/13 09:35:27;;;;;;;0.10;0.10;;;;;;;;;;5011226;28;20050;-83
2024/02/13 09:37:53;;;;;;;0.30;0.30;;;;;;;;;;4978874;28;20045;-85
2024/02/13 09:40:20;;;;;;;0.30;0.30;;;;;;;;;;4978530;28;20210;-84
2024/02/13 09:42:46;;;;;;;0.35;0.35;;;;;;;;;;4994635;28;20041;-84
2024/02/13 09:45:13;;;;;;;0.10;0.10;;;;;;;;;;4975554;28;20038;-84
2024/02/13 09:47:39;;;;;;;0.20;0.20;;;;;;;;;;4973588;28;20081;-84
2024/02/13 09:50:12;;;;;;;0.10;0.10;;;;;;;;;;4959375;28;20042;-84
2024/02/13 09:52:46;;;;;;;0.30;0.30;;;;;;;;;;4975672;28;20046;-84
2024/02/13 09:55:12;;;;;;;0.17;0.17;;;;;;;;;;4983840;28;20050;-83
2024/02/13 09:57:41;;;;;;;0.30;0.30;;;;;;;;;;4975257;28;20508;-84
2024/02/13 10:00:11;;;;;;;0.10;0.10;;;;;;;;;;4974227;28;20120;-84
2024/02/13 10:02:41;;;;;;;0.10;0.10;;;;;;;;;;4975599;28;20034;-85
2024/02/13 10:05:09;;;;;;;0.10;0.10;;;;;;;;;;4975490;28;20078;-84
2024/02/13 10:07:37;;;;;;;0.10;0.10;;;;;;;;;;4991277;28;20038;-84
2024/02/13 10:10:04;;;;;;;0.20;0.20;;;;;;;;;;4974970;28;20081;-84
2024/02/13 10:12:30;;;;;;;0.10;0.10;;;;;;;;;;4974994;28;20038;-84
2024/02/13 10:14:58;;;;;;;0.20;0.20;;;;;;;;;;5020241;28;20046;-85
2024/02/13 10:17:24;;;;;;;0.20;0.20;;;;;;;;;;4974268;28;20483;-85
2024/02/13 10:19:52;;;;;;;0.10;0.10;;;;;;;;;;4990133;28;20433;-83
2024/02/13 10:22:20;;;;;;;0.17;0.17;;;;;;;;;;4977759;28;20041;-84
2024/02/13 10:24:54;;;;;;;0.30;0.30;;;;;;;;;;5002168;28;20242;-84
2024/02/13 10:27:20;;;;;;;2.50;0.40;;;;;;;;;;4991604;28;20042;-85
2024/02/13 10:29:47;;;;;;;0.20;0.20;;;;;;;;;;4980122;28;20047;-85
2024/02/13 10:32:14;;;;;;;0.10;0.10;;;;;;;;;;4975016;28;20078;-86
2024/02/13 10:34:40;;;;;;;0.10;0.10;;;;;;;;;;4974254;28;20105;-88
2024/02/13 10:37:09;;;;;;;0.30;0.30;;;;;;;;;;4991182;28;20039;-86
2024/02/13 10:39:40;;;;;;;0.20;0.20;;;;;;;;;;4975031;28;20039;-85
2024/02/13 10:42:09;;;;;;;0.10;0.10;;;;;;;;;;4992638;28;20490;-84
2024/02/13 10:44:39;;;;;;;0.20;0.20;;;;;;;;;;4982128;28;20038;-85
2024/02/13 10:47:07;;;;;;;0.50;0.50;;;;;;;;;;4975049;28;20124;-85
2024/02/13 10:49:39;;;;;;;0.40;0.40;;;;;;;;;;4974042;28;20042;-85
2024/02/13 10:52:06;;;;;;;0.10;0.10;;;;;;;;;;4989650;28;20038;-85
2024/02/13 10:54:32;;;;;;;0.70;0.50;;;;;;;;;;4981003;28;20124;-84
2024/02/13 10:56:59;;;;;;;0.20;0.20;;;;;;;;;;4993056;28;20053;-83
2024/02/13 10:59:28;;;;;;;0.10;0.10;;;;;;;;;;5009647;28;20052;-84
2024/02/13 11:01:54;;;;;;;0.80;0.52;;;;;;;;;;4996707;28;20077;-87
2024/02/13 11:04:20;;;;;;;0.10;0.10;;;;;;;;;;5004477;28;20621;-86
2024/02/13 11:06:46;;;;;;;0.32;0.32;;;;;;;;;;5017037;28;20050;-84
2024/02/13 11:09:13;;;;;;;0.15;0.15;;;;;;;;;;4997378;28;20038;-84
2024/02/13 11:11:39;;;;;;;3.00;0.22;;;;;;;;;;5013770;28;20045;-83
2024/02/13 11:14:18;;;;;;;0.22;0.22;;;;;;;;;;5013647;28;20046;-83
2024/02/13 11:16:57;;;;;;;0.10;0.10;;;;;;;;;;5013898;28;20077;-83
2024/02/13 11:19:24;;;;;;;0.10;0.10;;;;;;;;;;4997318;28;20042;-86
2024/02/13 11:21:51;;;;;;;0.95;0.38;;;;;;;;;;4998402;28;20057;-89
2024/02/13 11:24:21;;;;;;;0.10;0.10;;;;;;;;;;5000474;28;20041;-90
2024/02/13 11:26:47;;;;;;;0.10;0.10;;;;;;;;;;5015865;28;20042;-91
2024/02/13 11:29:19;;;;;;;0.10;0.10;;;;;;;;;;4999826;28;20042;-90
2024/02/13 11:31:55;;;;;;;0.20;0.20;;;;;;;;;;5008438;28;20092;-87
2024/02/13 11:34:22;;;;;;;0.10;0.10;;;;;;;;;;5005518;28;20073;-87
2024/02/13 11:36:51;;;;;;;0.20;0.20;;;;;;;;;;5014715;28;20046;-86
2024/02/13 11:39:19;;;;;;;0.30;0.17;;;;;;;;;;4981060;28;20420;-87
2024/02/13 11:41:45;;;;;;;0.25;0.25;;;;;;;;;;4994860;28;20038;-88
2024/02/13 11:44:12;;;;;;;0.20;0.20;;;;;;;;;;5008709;28;20435;-86
2024/02/13 11:46:39;;;;;;;0.15;0.15;;;;;;;;;;4993847;28;20065;-85
2024/02/13 11:49:09;;;;;;;0.10;0.10;;;;;;;;;;4992583;28;20110;-85
2024/02/13 11:51:38;;;;;;;0.20;0.20;;;;;;;;;;4993976;28;20136;-85
2024/02/13 11:54:08;;;;;;;0.10;0.10;;;;;;;;;;4999478;28;20065;-85
2024/02/13 11:56:35;;;;;;;0.20;0.20;;;;;;;;;;5000401;28;20045;-85
2024/02/13 11:59:07;;;;;;;0.40;0.40;;;;;;;;;;4990589;28;20049;-86
2024/02/13 12:01:36;;;;;;;0.20;0.20;;;;;;;;;;5011415;28;20048;-85
2024/02/13 12:04:03;;;;;;;0.20;0.20;;;;;;;;;;5016299;28;20033;-84
2024/02/13 12:06:29;;;;;;;0.10;0.10;;;;;;;;;;5035693;28;20045;-85
2024/02/13 12:08:58;;;;;;;0.20;0.20;;;;;;;;;;5036422;28;20369;-83
2024/02/13 12:11:24;;;;;;;0.10;0.10;;;;;;;;;;5036218;28;20036;-85
2024/02/13 12:13:50;;;;;;;0.20;0.20;;;;;;;;;;5035450;28;20047;-86
2024/02/13 12:16:18;;;;;;;0.10;0.10;;;;;;;;;;5035497;28;20048;-86
2024/02/13 12:18:44;;;;;;;0.10;0.10;;;;;;;;;;5035557;28;20037;-86
2024/02/13 12:21:13;;;;;;;0.10;0.10;;;;;;;;;;5035484;28;20032;-85
2024/02/13 12:23:43;;;;;;;0.30;0.30;;;;;;;;;;5035598;28;20132;-85
2024/02/13 12:26:09;;;;;;;1.13;0.20;;;;;;;;;;5035837;28;20136;-85
2024/02/13 12:28:36;;;;;;;0.30;0.30;;;;;;;;;;5035467;28;20049;-85
2024/02/13 12:31:02;;;;;;;0.20;0.20;;;;;;;;;;5035663;28;20451;-85
2024/02/13 12:33:28;;;;;;;0.30;0.30;;;;;;;;;;5035355;28;20041;-85
2024/02/13 12:36:08;;;;;;;0.20;0.20;;;;;;;;;;5035457;28;20044;-85
2024/02/13 12:38:37;;;;;;;0.32;0.32;;;;;;;;;;5035293;28;20037;-85
2024/02/13 12:41:07;;;;;;;0.10;0.10;;;;;;;;;;5035448;28;20495;-85
2024/02/13 12:43:33;;;;;;;0.30;0.30;;;;;;;;;;5035277;28;20036;-85
2024/02/13 12:46:02;;;;;;;0.10;0.10;;;;;;;;;;5035005;28;20091;-85
2024/02/13 12:48:32;;;;;;;0.75;0.35;;;;;;;;;;5035106;28;20094;-85
2024/02/13 12:51:02;;;;;;;0.10;0.10;;;;;;;;;;5034901;28;20052;-85
2024/02/13 12:53:29;;;;;;;0.20;0.20;;;;;;;;;;5035123;28;20041;-85
2024/02/13 12:55:56;;;;;;;0.10;0.10;;;;;;;;;;5034763;28;20053;-85
2024/02/13 12:58:22;;;;;;;0.20;0.20;;;;;;;;;;5034878;28;20414;-86
2024/02/13 13:00:49;;;;;;;0.30;0.30;;;;;;;;;;5035236;28;20044;-86
2024/02/13 13:03:15;;;;;;;0.10;0.10;;;;;;;;;;5035210;28;20064;-86
2024/02/13 13:05:42;;;;;;;0.15;0.15;;;;;;;;;;5034798;28;20488;-85
2024/02/13 13:08:14;;;;;;;0.30;0.30;;;;;;;;;;5034736;28;20451;-85
2024/02/13 13:10:40;;;;;;;0.20;0.20;;;;;;;;;;5034711;28;20057;-85
2024/02/13 13:13:06;;;;;;;0.20;0.20;;;;;;;;;;5051246;28;20076;-86
2024/02/13 13:15:36;;;;;;;0.20;0.20;;;;;;;;;;5034437;28;20511;-86
2024/02/13 13:18:02;;;;;;;0.20;0.20;;;;;;;;;;5034520;28;20084;-85
2024/02/13 13:20:29;;;;;;;0.20;0.20;;;;;;;;;;5034579;28;20082;-85
2024/02/13 13:22:56;;;;;;;0.10;0.10;;;;;;;;;;5034453;28;20087;-85
2024/02/13 13:25:31;;;;;;;0.20;0.20;;;;;;;;;;5034245;28;20131;-86
2024/02/13 13:28:15;;;;;;;0.20;0.20;;;;;;;;;;5034486;28;20083;-86
2024/02/13 13:30:48;;;;;;;0.17;0.17;;;;;;;;;;5034620;28;20366;-86
2024/02/13 13:33:17;;;;;;;0.25;0.25;;;;;;;;;;5034294;28;20052;-85
2024/02/13 13:35:46;;;;;;;0.20;0.20;;;;;;;;;;5034307;28;20037;-85
2024/02/13 13:38:13;;;;;;;0.10;0.10;;;;;;;;;;5034242;28;20041;-84
2024/02/13 13:40:39;;;;;;;0.30;0.30;;;;;;;;;;5034183;28;20069;-85
2024/02/13 13:43:09;;;;;;;0.10;0.10;;;;;;;;;;5034203;28;20531;-86
2024/02/13 13:45:35;;;;;;;0.10;0.10;;;;;;;;;;5050854;28;20044;-85
2024/02/13 13:48:14;;;;;;;0.10;0.10;;;;;;;;;;5034028;28;20041;-85
2024/02/13 13:50:42;;;;;;;0.73;0.73;;;;;;;;;;5034222;28;20475;-85
2024/02/13 13:53:08;;;;;;;0.10;0.10;;;;;;;;;;5034270;28;20475;-84
2024/02/13 13:55:35;;;;;;;0.10;0.10;;;;;;;;;;5033781;28;20085;-85
2024/02/13 13:58:02;;;;;;;0.30;0.30;;;;;;;;;;5034328;28;20083;-85
2024/02/13 14:00:32;;;;;;;0.30;0.30;;;;;;;;;;5033850;28;20041;-86
2024/02/13 14:02:58;;;;;;;0.10;0.10;;;;;;;;;;5034072;28;20389;-85
2024/02/13 14:05:25;;;;;;;0.10;0.10;;;;;;;;;;5034223;28;20052;-85
2024/02/13 14:07:51;;;;;;;0.30;0.30;;;;;;;;;;5034275;28;20045;-85
2024/02/13 14:10:17;;;;;;;0.10;0.10;;;;;;;;;;5033698;28;20048;-85
2024/02/13 14:12:43;;;;;;;0.10;0.10;;;;;;;;;;5034071;28;20460;-85
2024/02/13 14:15:10;;;;;;;0.10;0.10;;;;;;;;;;5033655;28;20049;-85
2024/02/13 14:17:36;;;;;;;0.10;0.10;;;;;;;;;;5033975;28;20037;-85
2024/02/13 14:20:05;;;;;;;0.10;0.10;;;;;;;;;;5033580;28;20092;-85
2024/02/13 14:22:32;;;;;;;0.20;0.20;;;;;;;;;;5033749;28;20087;-85
2024/02/13 14:24:58;;;;;;;0.10;0.10;;;;;;;;;;5033807;28;20037;-86
2024/02/13 14:27:24;;;;;;;0.10;0.10;;;;;;;;;;5033867;28;20051;-86
2024/02/13 14:29:50;;;;;;;0.20;0.20;;;;;;;;;;5033851;28;20128;-86
2024/02/13 14:32:16;;;;;;;0.10;0.10;;;;;;;;;;5033603;28;20063;-85
2024/02/13 14:34:43;;;;;;;0.20;0.20;;;;;;;;;;5033722;28;20070;-84
2024/02/13 14:37:09;;;;;;;0.10;0.10;;;;;;;;;;5035587;28;20049;-86
2024/02/13 14:39:36;;;;;;;0.20;0.20;;;;;;;;;;5037884;28;20076;-85
2024/02/13 14:42:02;;;;;;;1.40;0.40;;;;;;;;;;5037657;28;20396;-85
2024/02/13 14:44:30;;;;;;;0.10;0.10;;;;;;;;;;5037882;28;20388;-85
2024/02/13 14:46:57;;;;;;;0.10;0.10;;;;;;;;;;5037841;28;20361;-85